GMMC/CAS METAR and TAF weather

Enter ICAO airport designator
Station Type Date Time Source
GMMC METAR 2018/12/10 19:00 UTC NOAA

GMMC 101900Z 26004KT CAVOK 15/13 Q1024 NOSIG


Station Type Date Time Source
GMMC Decoded METAR 2018/12/10 19:00 UTC NOAA

Casablanca, Morocco (GMMC) 33-34N 007-40W 62M
Dec 10, 2018 - 02:00 PM EST / 2018.12.10 1900 UTC
Wind: from the W (260 degrees) at 5 MPH (4 KT):0
Visibility: greater than 7 mile(s):0
Temperature: 59 F (15 C)
Dew Point: 55 F (13 C)
Relative Humidity: 87%
Pressure (altimeter): 30.24 in. Hg (1024 hPa)
ob: GMMC 101900Z 26004KT CAVOK 15/13 Q1024 NOSIG
cycle: 19

Station Type Date Time Source
GMMC TAF 2016/05/22 17:00 UTC NOAA

FTMC31 GMMC 221700 RRA TAF LPPT 221700Z 2218/2324 34013KT CAVOK
BECMG 2221/2224 34007KT
BECMG 2310/2312 VRB03KT


Example: see airport list